createdAt,value
2023-05-31T00:00:34.863Z,60.97
2023-05-31T00:01:34.891Z,60.50
2023-05-31T00:02:35.035Z,52.37
2023-05-31T00:03:34.888Z,66.79
2023-05-31T00:04:34.857Z,64.02
2023-05-31T00:05:34.858Z,59.12
2023-05-31T00:06:35.837Z,66.68
2023-05-31T00:07:34.850Z,61.88
2023-05-31T00:08:34.815Z,52.59
2023-05-31T00:09:34.837Z,56.94
2023-05-31T00:10:34.811Z,56.95
2023-05-31T00:11:34.825Z,52.69
2023-05-31T00:12:34.859Z,62.15
2023-05-31T00:13:34.783Z,55.33
2023-05-31T00:14:35.765Z,59.33
2023-05-31T00:15:34.779Z,51.56
2023-05-31T00:17:48.998Z,53.77
2023-05-31T00:18:36.857Z,59.62
2023-05-31T00:19:34.796Z,56.69
2023-05-31T00:20:34.782Z,55.76
2023-05-31T00:21:34.787Z,53.99
2023-05-31T00:22:34.748Z,55.26
2023-05-31T00:23:34.891Z,51.97
2023-05-31T00:24:34.728Z,57.52
2023-05-31T00:25:34.795Z,51.68
2023-05-31T00:26:34.724Z,63.60
2023-05-31T00:27:34.708Z,51.98
2023-05-31T00:28:36.559Z,65.41
2023-05-31T00:29:34.690Z,60.65
2023-05-31T00:30:34.779Z,55.68
2023-05-31T00:31:34.717Z,56.95
2023-05-31T00:32:34.669Z,52.76
2023-05-31T00:33:34.668Z,56.65
2023-05-31T00:34:34.635Z,52.02
2023-05-31T00:35:34.623Z,61.91
2023-05-31T00:36:34.636Z,56.03
2023-05-31T00:37:34.641Z,64.61
2023-05-31T00:38:34.621Z,52.47
2023-05-31T00:39:34.615Z,56.44
2023-05-31T00:40:34.625Z,53.64
2023-05-31T00:41:34.600Z,60.05
2023-05-31T00:42:34.653Z,62.82
2023-05-31T00:43:34.572Z,52.40
2023-05-31T00:44:34.623Z,62.87
2023-05-31T00:45:34.578Z,53.35
2023-05-31T00:46:34.561Z,55.01
2023-05-31T00:47:34.615Z,52.09
2023-05-31T00:48:34.631Z,57.12
2023-05-31T00:49:34.549Z,52.54
2023-05-31T00:50:34.542Z,52.27
2023-05-31T00:51:34.570Z,53.00
2023-05-31T00:52:35.554Z,62.47
2023-05-31T00:53:34.576Z,52.64
2023-05-31T00:54:34.519Z,54.89
2023-05-31T00:55:34.502Z,62.74
2023-05-31T00:56:34.507Z,57.86
2023-05-31T00:57:34.484Z,58.00
2023-05-31T00:58:34.518Z,52.40
2023-05-31T00:59:34.561Z,52.30
2023-05-31T01:00:34.479Z,55.93
2023-05-31T01:01:34.966Z,60.22
2023-05-31T01:02:34.499Z,59.59
2023-05-31T01:03:34.466Z,52.49
2023-05-31T01:04:34.464Z,52.70
2023-05-31T01:05:34.459Z,57.20
2023-05-31T01:06:34.472Z,54.74
2023-05-31T01:07:34.488Z,63.06
2023-05-31T01:08:34.453Z,66.77
2023-05-31T01:09:34.419Z,64.57
2023-05-31T01:10:34.431Z,60.40
2023-05-31T01:11:34.409Z,52.45
2023-05-31T01:12:34.396Z,52.55
2023-05-31T01:13:34.406Z,52.84
2023-05-31T01:14:34.460Z,52.89
2023-05-31T01:15:34.379Z,60.18
2023-05-31T01:16:34.511Z,64.24
2023-05-31T01:17:34.381Z,53.70
2023-05-31T01:18:34.376Z,53.26
2023-05-31T01:19:34.378Z,53.27
2023-05-31T01:20:34.436Z,61.54
2023-05-31T01:21:34.411Z,54.30
2023-05-31T01:22:34.318Z,53.40
2023-05-31T01:23:36.692Z,53.05
2023-05-31T01:24:34.303Z,56.82
2023-05-31T01:25:34.294Z,53.24
2023-05-31T01:26:34.309Z,58.28
2023-05-31T01:27:34.285Z,56.96
2023-05-31T01:28:34.268Z,52.79
2023-05-31T01:29:34.322Z,52.81
2023-05-31T01:30:34.307Z,52.91
2023-05-31T01:31:34.379Z,52.69
2023-05-31T01:32:34.286Z,63.07
2023-05-31T01:33:34.239Z,57.11
2023-05-31T01:34:34.240Z,60.15
2023-05-31T01:35:34.230Z,59.13
2023-05-31T01:36:34.270Z,58.69
2023-05-31T01:37:34.248Z,68.55
2023-05-31T01:38:34.213Z,60.22
2023-05-31T01:39:34.196Z,54.04
2023-05-31T01:40:34.224Z,57.58
2023-05-31T01:41:34.236Z,60.03
2023-05-31T01:42:34.208Z,53.20
2023-05-31T01:43:34.181Z,53.50
2023-05-31T01:44:34.174Z,56.36
2023-05-31T01:45:35.177Z,54.21
2023-05-31T01:46:34.474Z,53.00
2023-05-31T01:47:34.191Z,52.94
2023-05-31T01:48:34.156Z,57.85
2023-05-31T01:49:34.155Z,52.84
2023-05-31T01:50:34.120Z,52.81
2023-05-31T01:51:34.159Z,58.28
2023-05-31T01:52:34.148Z,64.60
2023-05-31T01:53:34.133Z,57.98
2023-05-31T01:54:34.148Z,53.26
2023-05-31T01:55:34.159Z,53.43
2023-05-31T01:56:34.081Z,53.22
2023-05-31T01:57:34.094Z,59.28
2023-05-31T01:58:34.145Z,58.20
2023-05-31T01:59:34.130Z,61.04
2023-05-31T02:00:34.084Z,63.32
2023-05-31T02:01:34.099Z,63.54
2023-05-31T02:02:34.101Z,58.27
2023-05-31T02:03:34.060Z,52.95
2023-05-31T02:04:34.063Z,52.76
2023-05-31T02:05:34.074Z,55.97
2023-05-31T02:06:34.053Z,63.01
2023-05-31T02:07:34.005Z,59.45
2023-05-31T02:08:34.018Z,52.98
2023-05-31T02:09:34.036Z,52.64
2023-05-31T02:10:34.054Z,60.54
2023-05-31T02:11:34.019Z,53.44
2023-05-31T02:12:33.995Z,59.16
2023-05-31T02:13:33.989Z,64.97
2023-05-31T02:14:33.950Z,53.76
2023-05-31T02:15:33.992Z,62.67
2023-05-31T02:16:33.995Z,57.82
2023-05-31T02:17:34.081Z,58.68
2023-05-31T02:18:34.088Z,55.99
2023-05-31T02:19:33.937Z,57.19
2023-05-31T02:20:33.968Z,57.64
2023-05-31T02:21:33.945Z,65.66
2023-05-31T02:22:33.940Z,54.15
2023-05-31T02:23:33.919Z,54.38
2023-05-31T02:24:33.928Z,58.67
2023-05-31T02:25:33.903Z,58.39
2023-05-31T02:26:33.893Z,56.00
2023-05-31T02:27:34.947Z,59.30
2023-05-31T02:28:33.880Z,55.52
2023-05-31T02:29:33.883Z,55.75
2023-05-31T02:30:33.865Z,55.49
2023-05-31T02:31:33.926Z,61.32
2023-05-31T02:32:33.882Z,59.64
2023-05-31T02:33:33.854Z,66.62
2023-05-31T02:34:33.872Z,58.26
2023-05-31T02:35:33.861Z,59.48
2023-05-31T02:36:33.807Z,63.96
2023-05-31T02:37:33.825Z,60.65
2023-05-31T02:38:33.841Z,58.92
2023-05-31T02:39:33.824Z,62.58
2023-05-31T02:40:33.850Z,56.49
2023-05-31T02:41:33.786Z,62.55
2023-05-31T02:42:33.785Z,58.69
2023-05-31T02:43:33.755Z,58.66
2023-05-31T02:44:33.778Z,58.84
2023-05-31T02:45:33.809Z,57.91
2023-05-31T02:46:33.818Z,65.96
2023-05-31T02:47:33.903Z,63.62
2023-05-31T02:48:33.804Z,65.28
2023-05-31T02:49:33.826Z,67.49
2023-05-31T02:50:33.776Z,61.52
2023-05-31T02:51:33.724Z,70.63
2023-05-31T02:52:33.728Z,58.84
2023-05-31T02:53:33.693Z,60.52
2023-05-31T02:54:33.718Z,60.88
2023-05-31T02:55:33.707Z,66.77
2023-05-31T02:56:33.720Z,61.24
2023-05-31T02:57:33.664Z,64.47
2023-05-31T02:58:33.684Z,58.08
2023-05-31T02:59:33.669Z,59.18
2023-05-31T03:00:33.653Z,66.74
2023-05-31T03:01:33.671Z,60.55
2023-05-31T03:02:33.738Z,63.61
2023-05-31T03:03:33.712Z,61.82
2023-05-31T03:04:33.645Z,57.84
2023-05-31T03:05:33.595Z,66.30
2023-05-31T03:06:33.662Z,60.52
2023-05-31T03:07:33.615Z,64.88
2023-05-31T03:08:33.612Z,60.81
2023-05-31T03:09:33.685Z,56.83
2023-05-31T03:10:33.596Z,70.00
2023-05-31T03:11:33.628Z,62.66
2023-05-31T03:12:33.646Z,70.77
2023-05-31T03:13:33.596Z,72.87
2023-05-31T03:14:33.715Z,69.26
2023-05-31T03:15:33.630Z,62.61
2023-05-31T03:16:33.610Z,69.06
2023-05-31T03:17:33.587Z,71.21
2023-05-31T03:18:33.594Z,68.63
2023-05-31T03:19:33.622Z,65.51
2023-05-31T03:20:33.576Z,60.85
2023-05-31T03:21:33.560Z,65.05
2023-05-31T03:22:33.528Z,62.21
2023-05-31T03:23:33.537Z,66.80
2023-05-31T03:24:33.554Z,64.79
2023-05-31T03:25:33.558Z,62.21
2023-05-31T03:26:33.509Z,67.78
2023-05-31T03:27:33.507Z,66.90
2023-05-31T03:28:33.583Z,67.12
2023-05-31T03:29:34.120Z,71.11
2023-05-31T03:30:33.517Z,72.58
2023-05-31T03:31:33.584Z,64.02
2023-05-31T03:32:35.433Z,69.90
2023-05-31T03:33:33.455Z,71.83
2023-05-31T03:34:33.462Z,69.34
2023-05-31T03:35:33.508Z,70.04
2023-05-31T03:36:33.437Z,61.82
2023-05-31T03:37:33.469Z,72.13
2023-05-31T03:38:33.433Z,72.71
2023-05-31T03:39:33.417Z,70.70
2023-05-31T03:40:33.438Z,70.88
2023-05-31T03:41:33.444Z,64.62
2023-05-31T03:42:33.391Z,73.86
2023-05-31T03:43:33.403Z,65.35
2023-05-31T03:44:33.447Z,71.03
2023-05-31T03:45:33.413Z,74.71
2023-05-31T03:46:33.378Z,69.65
2023-05-31T03:47:33.432Z,71.07
2023-05-31T03:48:33.366Z,68.90
2023-05-31T03:49:33.378Z,71.92
2023-05-31T03:50:33.381Z,73.60
2023-05-31T03:51:34.561Z,68.12
2023-05-31T03:52:33.336Z,70.29
2023-05-31T03:53:33.316Z,68.97
2023-05-31T03:54:33.314Z,67.25
2023-05-31T03:55:33.299Z,70.87
2023-05-31T03:56:33.338Z,65.45
2023-05-31T03:57:33.327Z,64.95
2023-05-31T03:58:33.271Z,63.82
2023-05-31T03:59:33.339Z,69.98
2023-05-31T04:00:33.272Z,68.33
2023-05-31T04:01:33.292Z,72.08
2023-05-31T04:02:34.142Z,63.25
2023-05-31T04:03:33.404Z,72.49
2023-05-31T04:04:33.297Z,68.21
2023-05-31T04:05:34.248Z,71.83
2023-05-31T04:06:33.246Z,69.74
2023-05-31T04:07:33.225Z,70.30
2023-05-31T04:08:33.215Z,74.83
2023-05-31T04:09:33.273Z,66.26
2023-05-31T04:10:33.202Z,70.09
2023-05-31T04:11:33.220Z,69.94
2023-05-31T04:12:33.188Z,70.53
2023-05-31T04:13:33.233Z,72.35
2023-05-31T04:14:33.221Z,72.76
2023-05-31T04:15:33.171Z,72.24
2023-05-31T04:16:33.331Z,76.17
2023-05-31T04:17:33.184Z,70.91
2023-05-31T04:18:33.137Z,69.38
2023-05-31T04:19:33.157Z,70.81
2023-05-31T04:20:33.203Z,72.74
2023-05-31T04:21:33.113Z,73.67
2023-05-31T04:22:33.096Z,66.90
2023-05-31T04:23:33.159Z,68.58
2023-05-31T04:24:33.083Z,73.77
2023-05-31T04:25:33.111Z,65.73
2023-05-31T04:26:33.071Z,64.50
2023-05-31T04:27:33.192Z,74.39
2023-05-31T04:28:33.134Z,71.89
2023-05-31T04:29:33.045Z,70.33
2023-05-31T04:30:33.119Z,70.02
2023-05-31T04:31:49.325Z,72.11
2023-05-31T04:32:35.108Z,71.09
2023-05-31T04:33:33.067Z,68.46
2023-05-31T04:34:33.032Z,71.31
2023-05-31T04:35:32.988Z,69.22
2023-05-31T04:36:33.013Z,69.76
2023-05-31T04:37:32.981Z,73.27
2023-05-31T04:38:32.992Z,74.74
2023-05-31T04:39:32.976Z,75.46
2023-05-31T04:40:33.142Z,73.28
2023-05-31T04:41:33.057Z,73.80
2023-05-31T04:42:32.958Z,72.46
2023-05-31T04:43:33.630Z,70.94
2023-05-31T04:44:33.043Z,71.71
2023-05-31T04:45:33.010Z,73.06
2023-05-31T04:46:33.087Z,78.27
2023-05-31T04:47:32.991Z,70.90
2023-05-31T04:48:33.002Z,71.07
2023-05-31T04:49:37.465Z,72.36
2023-05-31T04:50:34.965Z,75.24
2023-05-31T04:51:32.968Z,74.37
2023-05-31T04:52:33.011Z,75.06
2023-05-31T04:53:32.984Z,71.20
2023-05-31T04:54:32.953Z,74.03
2023-05-31T04:55:32.959Z,71.37
2023-05-31T04:56:32.897Z,72.50
2023-05-31T04:57:33.232Z,75.08
2023-05-31T04:58:33.853Z,72.30
2023-05-31T04:59:32.856Z,75.82
2023-05-31T05:00:32.869Z,71.49
2023-05-31T05:01:32.897Z,70.99
2023-05-31T05:02:32.846Z,73.90
2023-05-31T05:03:32.850Z,70.54
2023-05-31T05:04:32.805Z,72.28
2023-05-31T05:05:32.968Z,73.84
2023-05-31T05:06:32.833Z,73.89
2023-05-31T05:07:32.822Z,68.93
2023-05-31T05:08:32.834Z,71.18
2023-05-31T05:09:32.773Z,73.68
2023-05-31T05:10:32.748Z,69.62
2023-05-31T05:11:32.768Z,71.68
2023-05-31T05:12:32.802Z,74.78
2023-05-31T05:13:32.768Z,73.49
2023-05-31T05:14:32.797Z,70.69
2023-05-31T05:15:32.779Z,71.40
2023-05-31T05:16:32.808Z,76.73
2023-05-31T05:17:32.724Z,72.14
2023-05-31T05:18:32.748Z,71.27
2023-05-31T05:19:32.704Z,73.48
2023-05-31T05:20:32.741Z,70.43
2023-05-31T05:21:32.842Z,72.86
2023-05-31T05:22:32.702Z,76.00
2023-05-31T05:23:32.813Z,73.34
2023-05-31T05:24:32.737Z,72.94
2023-05-31T05:25:32.708Z,71.98
2023-05-31T05:26:32.644Z,75.73
2023-05-31T05:27:32.669Z,74.17
2023-05-31T05:28:32.731Z,74.08
2023-05-31T05:29:32.646Z,74.58
2023-05-31T05:30:32.644Z,73.76
2023-05-31T05:31:33.619Z,72.86
2023-05-31T05:32:32.752Z,73.50
2023-05-31T05:33:32.639Z,70.18
2023-05-31T05:34:32.690Z,75.36
2023-05-31T05:35:32.736Z,76.10
2023-05-31T05:36:32.623Z,76.31
2023-05-31T05:37:32.597Z,76.42
2023-05-31T05:38:32.578Z,75.12
2023-05-31T05:39:32.609Z,73.71
2023-05-31T05:40:32.652Z,71.26
2023-05-31T05:41:32.571Z,73.94
2023-05-31T05:42:32.746Z,71.67
2023-05-31T05:43:32.554Z,75.10
2023-05-31T05:44:33.257Z,72.50
2023-05-31T05:45:32.523Z,78.29
2023-05-31T05:46:32.598Z,75.61
2023-05-31T05:47:32.674Z,68.92
2023-05-31T05:48:32.533Z,67.07
2023-05-31T05:49:32.500Z,73.51
2023-05-31T05:50:32.507Z,74.26
2023-05-31T05:51:32.473Z,73.08
2023-05-31T05:52:32.604Z,75.04
2023-05-31T05:53:32.524Z,73.87
2023-05-31T05:54:32.502Z,75.69
2023-05-31T05:55:32.535Z,78.91
2023-05-31T05:56:32.464Z,72.86
2023-05-31T05:57:32.502Z,74.73
2023-05-31T05:58:32.469Z,73.37
2023-05-31T05:59:32.525Z,72.72
2023-05-31T06:00:32.438Z,74.06
2023-05-31T06:01:34.181Z,74.18
2023-05-31T06:02:32.468Z,73.30
2023-05-31T06:03:32.502Z,73.86
2023-05-31T06:04:32.424Z,76.96
2023-05-31T06:05:32.528Z,77.45
2023-05-31T06:06:32.416Z,77.72
2023-05-31T06:07:32.387Z,77.55
2023-05-31T06:08:32.379Z,75.26
2023-05-31T06:09:32.390Z,75.67
2023-05-31T06:10:32.365Z,75.08
2023-05-31T06:11:32.448Z,76.60
2023-05-31T06:12:32.459Z,75.61
2023-05-31T06:13:32.574Z,75.61
2023-05-31T06:14:32.414Z,75.40
2023-05-31T06:15:32.418Z,74.20
2023-05-31T06:16:32.498Z,75.46
2023-05-31T06:17:32.473Z,73.27
2023-05-31T06:18:32.321Z,75.42
2023-05-31T06:19:32.476Z,71.95
2023-05-31T06:20:32.458Z,75.47
2023-05-31T06:21:32.321Z,77.04
2023-05-31T06:22:32.401Z,72.73
2023-05-31T06:23:32.313Z,75.08
2023-05-31T06:24:32.326Z,75.34
2023-05-31T06:25:32.348Z,75.44
2023-05-31T06:26:32.348Z,75.31
2023-05-31T06:27:32.317Z,69.56
2023-05-31T06:28:36.906Z,75.27
2023-05-31T06:29:34.281Z,77.51
2023-05-31T06:30:32.277Z,77.46
2023-05-31T06:31:32.314Z,74.64
2023-05-31T06:32:32.350Z,70.01
2023-05-31T06:33:32.229Z,76.24
2023-05-31T06:34:33.025Z,73.88
2023-05-31T06:35:33.477Z,76.64
2023-05-31T06:36:32.244Z,73.45
2023-05-31T06:37:32.312Z,72.19
2023-05-31T06:38:33.214Z,75.15
2023-05-31T06:39:32.262Z,73.99
2023-05-31T06:40:32.385Z,74.67
2023-05-31T06:41:32.232Z,72.22
2023-05-31T06:42:32.243Z,77.72
2023-05-31T06:43:32.215Z,75.73
2023-05-31T06:44:34.597Z,75.91
2023-05-31T06:45:33.172Z,70.57
2023-05-31T06:46:32.276Z,76.08
2023-05-31T06:47:32.386Z,73.80
2023-05-31T06:48:32.271Z,72.65
2023-05-31T06:49:32.298Z,72.06
2023-05-31T06:50:32.271Z,74.63
2023-05-31T06:51:32.167Z,73.80
2023-05-31T06:52:32.224Z,74.02
2023-05-31T06:53:32.176Z,73.21
2023-05-31T06:54:32.138Z,76.03
2023-05-31T06:55:32.123Z,73.07
2023-05-31T06:56:32.102Z,75.07
2023-05-31T06:57:32.114Z,74.45
2023-05-31T06:58:32.127Z,73.06
2023-05-31T06:59:32.062Z,73.51
2023-05-31T07:00:32.045Z,71.82
2023-05-31T07:01:32.099Z,70.36
2023-05-31T07:02:32.113Z,73.89
2023-05-31T07:03:32.078Z,72.93
2023-05-31T07:04:32.047Z,76.17
2023-05-31T07:05:32.047Z,75.52
2023-05-31T07:06:32.078Z,72.85
2023-05-31T07:07:32.558Z,73.43
2023-05-31T07:08:32.062Z,71.88
2023-05-31T07:09:32.121Z,74.31
2023-05-31T07:10:32.007Z,74.99
2023-05-31T07:11:32.030Z,71.93
2023-05-31T07:12:32.045Z,73.95
2023-05-31T07:13:32.012Z,72.58
2023-05-31T07:14:32.183Z,70.50
2023-05-31T07:15:31.985Z,69.74
2023-05-31T07:16:32.274Z,75.05
2023-05-31T07:17:32.848Z,71.99
2023-05-31T07:18:31.987Z,75.08
2023-05-31T07:19:31.979Z,76.75
2023-05-31T07:20:32.057Z,72.69
2023-05-31T07:21:31.988Z,71.34
2023-05-31T07:22:32.038Z,74.13
2023-05-31T07:23:32.606Z,71.33
2023-05-31T07:24:32.105Z,67.90
2023-05-31T07:25:32.007Z,74.25
2023-05-31T07:26:31.931Z,75.00
2023-05-31T07:27:31.909Z,70.15
2023-05-31T07:28:31.921Z,74.25
2023-05-31T07:29:32.092Z,68.93
2023-05-31T07:30:32.180Z,65.10
2023-05-31T07:31:32.763Z,68.13
2023-05-31T07:32:31.951Z,70.60
2023-05-31T07:33:32.097Z,69.89
2023-05-31T07:34:31.946Z,71.25
2023-05-31T07:35:32.008Z,68.71
2023-05-31T07:36:32.117Z,72.18
2023-05-31T07:37:32.062Z,71.35
2023-05-31T07:38:31.972Z,74.30
2023-05-31T07:39:31.937Z,71.09
2023-05-31T07:40:31.881Z,65.50
2023-05-31T07:41:32.217Z,73.12
2023-05-31T07:42:32.132Z,71.90
2023-05-31T07:43:32.797Z,72.65
2023-05-31T07:44:32.990Z,71.35
2023-05-31T07:45:31.937Z,71.24
2023-05-31T07:46:31.856Z,71.56
2023-05-31T07:47:31.893Z,72.40
2023-05-31T07:48:31.857Z,71.28
2023-05-31T07:49:32.463Z,72.70
2023-05-31T07:50:32.823Z,70.01
2023-05-31T07:51:32.196Z,71.88
2023-05-31T07:52:31.756Z,69.15
2023-05-31T07:53:31.761Z,67.76
2023-05-31T07:54:31.777Z,71.43
2023-05-31T07:55:31.779Z,71.82
2023-05-31T07:56:31.732Z,63.93
2023-05-31T07:57:31.724Z,73.43
2023-05-31T07:58:31.707Z,72.40
2023-05-31T07:59:31.858Z,70.92
2023-05-31T08:00:33.123Z,68.00
2023-05-31T08:01:31.782Z,73.70
2023-05-31T08:02:31.906Z,72.83
2023-05-31T08:03:31.801Z,70.34
2023-05-31T08:04:31.673Z,71.77
2023-05-31T08:05:31.716Z,72.28
2023-05-31T08:06:31.826Z,65.82
2023-05-31T08:07:31.787Z,73.70
2023-05-31T08:08:31.981Z,71.43
2023-05-31T08:09:31.724Z,68.58
2023-05-31T08:10:31.784Z,72.14
2023-05-31T08:11:31.637Z,74.05
2023-05-31T08:12:32.162Z,72.70
2023-05-31T08:13:32.610Z,75.08
2023-05-31T08:14:31.731Z,75.43
2023-05-31T08:15:31.629Z,73.97
2023-05-31T08:16:31.636Z,70.70
2023-05-31T08:17:32.177Z,74.89
2023-05-31T08:18:31.589Z,73.92
2023-05-31T08:19:31.543Z,72.51
2023-05-31T08:20:32.495Z,72.84
2023-05-31T08:21:32.842Z,71.57
2023-05-31T08:22:31.532Z,72.24
2023-05-31T08:23:31.553Z,70.16
2023-05-31T08:24:31.588Z,70.11
2023-05-31T08:25:31.632Z,68.68
2023-05-31T08:26:31.535Z,69.44
2023-05-31T08:27:31.544Z,69.93
2023-05-31T08:28:31.500Z,71.28
2023-05-31T08:29:32.494Z,71.79
2023-05-31T08:30:31.545Z,70.88
2023-05-31T08:31:31.550Z,67.28
2023-05-31T08:32:31.637Z,69.23
2023-05-31T08:33:31.603Z,70.23
2023-05-31T08:34:31.616Z,69.22
2023-05-31T08:35:31.602Z,70.50
2023-05-31T08:36:31.554Z,66.04
2023-05-31T08:37:31.523Z,75.88
2023-05-31T08:38:31.544Z,79.31
2023-05-31T08:39:31.581Z,78.52
2023-05-31T08:40:31.623Z,74.90
2023-05-31T08:41:31.474Z,76.65
2023-05-31T08:42:31.423Z,76.78
2023-05-31T08:43:31.482Z,74.97
2023-05-31T08:44:31.400Z,76.89
2023-05-31T08:45:31.426Z,74.51
2023-05-31T08:46:31.446Z,72.40
2023-05-31T08:47:31.416Z,72.17
2023-05-31T08:48:32.196Z,72.95
2023-05-31T08:49:31.454Z,74.14
2023-05-31T08:50:31.370Z,73.02
2023-05-31T08:51:31.402Z,73.04
2023-05-31T08:52:31.354Z,73.74
2023-05-31T08:53:31.405Z,72.67
2023-05-31T08:54:31.374Z,72.29
2023-05-31T08:55:31.390Z,70.35
2023-05-31T08:56:32.192Z,71.42
2023-05-31T08:57:31.311Z,70.95
2023-05-31T08:58:31.359Z,69.99
2023-05-31T08:59:31.460Z,76.33
2023-05-31T09:00:31.327Z,70.75
2023-05-31T09:01:31.316Z,74.81
2023-05-31T09:02:31.348Z,71.24
2023-05-31T09:03:31.322Z,71.92
2023-05-31T09:04:31.316Z,71.68
2023-05-31T09:05:31.350Z,71.99
2023-05-31T09:06:31.317Z,69.79
2023-05-31T09:07:31.279Z,70.12
2023-05-31T09:08:31.250Z,67.24
2023-05-31T09:09:31.309Z,71.21
2023-05-31T09:10:31.517Z,66.36
2023-05-31T09:11:31.281Z,69.15
2023-05-31T09:12:31.291Z,64.48
2023-05-31T09:13:31.223Z,72.65
2023-05-31T09:14:31.281Z,70.48
2023-05-31T09:15:31.221Z,71.78
2023-05-31T09:16:32.235Z,69.48
2023-05-31T09:17:31.247Z,68.79
2023-05-31T09:18:31.270Z,74.30
2023-05-31T09:19:31.207Z,69.83
2023-05-31T09:20:31.285Z,72.26
2023-05-31T09:21:31.194Z,66.89
2023-05-31T09:22:31.167Z,71.13
2023-05-31T09:23:31.150Z,71.06
2023-05-31T09:24:31.164Z,72.85
2023-05-31T09:25:31.155Z,71.40
2023-05-31T09:26:31.166Z,68.98
2023-05-31T09:27:31.201Z,70.85
2023-05-31T09:28:31.149Z,71.11
2023-05-31T09:29:31.159Z,71.31
2023-05-31T09:30:31.115Z,67.04
2023-05-31T09:31:31.196Z,72.60
2023-05-31T09:32:31.153Z,60.82
2023-05-31T09:33:31.166Z,73.16
2023-05-31T09:34:31.108Z,71.04
2023-05-31T09:35:31.078Z,70.72
2023-05-31T09:36:31.052Z,71.02
2023-05-31T09:37:31.179Z,68.53
2023-05-31T09:38:31.068Z,69.57
2023-05-31T09:39:31.037Z,68.70
2023-05-31T09:40:31.079Z,67.44
2023-05-31T09:41:31.055Z,70.29
2023-05-31T09:42:31.105Z,71.13
2023-05-31T09:43:31.048Z,69.33
2023-05-31T09:44:31.089Z,67.95
2023-05-31T09:45:31.055Z,68.54
2023-05-31T09:46:31.197Z,71.18
2023-05-31T09:47:31.086Z,69.94
2023-05-31T09:48:31.025Z,71.40
2023-05-31T09:49:31.006Z,66.90
2023-05-31T09:50:31.073Z,68.98
2023-05-31T09:51:31.247Z,69.77
2023-05-31T09:52:31.027Z,70.44
2023-05-31T09:53:31.006Z,69.48
2023-05-31T09:54:30.984Z,69.58
2023-05-31T09:55:31.744Z,70.48
2023-05-31T09:56:30.967Z,71.82
2023-05-31T09:57:31.779Z,72.60
2023-05-31T09:58:30.991Z,67.56
2023-05-31T09:59:30.974Z,70.75
2023-05-31T10:00:30.964Z,70.99
2023-05-31T10:01:31.004Z,72.54
2023-05-31T10:02:31.033Z,73.59
2023-05-31T10:03:30.986Z,71.56
2023-05-31T10:04:30.940Z,70.72
2023-05-31T10:05:30.997Z,72.22
2023-05-31T10:06:30.918Z,72.86
2023-05-31T10:07:30.989Z,70.08
2023-05-31T10:08:30.925Z,72.86
2023-05-31T10:09:30.957Z,73.14
2023-05-31T10:10:30.944Z,72.48
2023-05-31T10:11:30.916Z,74.27
2023-05-31T10:12:30.944Z,69.26
2023-05-31T10:13:31.043Z,71.54
2023-05-31T10:14:31.709Z,70.79
2023-05-31T10:15:30.958Z,72.10
2023-05-31T10:16:30.897Z,68.76
2023-05-31T10:17:30.942Z,74.00
2023-05-31T10:18:30.902Z,71.68
2023-05-31T10:19:30.879Z,72.61
2023-05-31T10:20:30.942Z,69.62
2023-05-31T10:21:30.882Z,70.49
2023-05-31T10:22:30.906Z,70.79
2023-05-31T10:23:30.869Z,70.91
2023-05-31T10:24:30.944Z,73.57
2023-05-31T10:25:30.930Z,70.78
2023-05-31T10:26:30.908Z,73.38
2023-05-31T10:27:30.821Z,72.04
2023-05-31T10:28:30.845Z,69.36
2023-05-31T10:29:30.824Z,66.97
2023-05-31T10:30:31.299Z,68.16
2023-05-31T10:31:31.818Z,71.33
2023-05-31T10:32:30.881Z,69.53
2023-05-31T10:33:30.861Z,71.21
2023-05-31T10:34:30.854Z,71.14
2023-05-31T10:35:30.792Z,67.48
2023-05-31T10:36:30.768Z,70.21
2023-05-31T10:37:30.863Z,71.90
2023-05-31T10:38:30.795Z,71.81
2023-05-31T10:39:30.868Z,71.20
2023-05-31T10:40:30.833Z,69.74
2023-05-31T10:41:30.755Z,72.05
2023-05-31T10:42:30.730Z,70.63
2023-05-31T10:43:30.841Z,68.65
2023-05-31T10:44:30.807Z,72.35
2023-05-31T10:45:30.811Z,71.06
2023-05-31T10:46:30.803Z,69.53
2023-05-31T10:47:30.862Z,69.42
2023-05-31T10:48:30.756Z,72.03
2023-05-31T10:49:30.691Z,69.89
2023-05-31T10:50:30.700Z,69.63
2023-05-31T10:51:30.675Z,72.35
2023-05-31T10:52:30.714Z,72.59
2023-05-31T10:53:30.670Z,71.67
2023-05-31T10:54:30.660Z,70.67
2023-05-31T10:55:30.750Z,69.34
2023-05-31T10:56:30.653Z,72.38
2023-05-31T10:57:31.873Z,71.03
2023-05-31T10:58:30.679Z,68.34
2023-05-31T10:59:30.827Z,69.32
2023-05-31T11:00:30.714Z,72.04
2023-05-31T11:01:30.644Z,71.13
2023-05-31T11:02:30.675Z,68.57
2023-05-31T11:03:30.761Z,70.59
2023-05-31T11:04:30.868Z,67.03
2023-05-31T11:05:30.695Z,73.37
2023-05-31T11:06:30.783Z,71.73
2023-05-31T11:07:30.701Z,72.14
2023-05-31T11:08:30.781Z,71.75
2023-05-31T11:09:30.933Z,70.81
2023-05-31T11:10:31.005Z,70.58
2023-05-31T11:11:30.736Z,69.27
2023-05-31T11:12:30.629Z,70.98
2023-05-31T11:13:30.759Z,70.77
2023-05-31T11:14:30.945Z,70.19
2023-05-31T11:15:30.509Z,68.16
2023-05-31T11:16:30.581Z,69.44
2023-05-31T11:17:30.570Z,71.28
2023-05-31T11:18:30.598Z,68.16
2023-05-31T11:19:30.501Z,71.33
2023-05-31T11:20:30.560Z,69.73
2023-05-31T11:21:30.541Z,70.85
2023-05-31T11:22:30.510Z,69.70
2023-05-31T11:23:30.555Z,72.24
2023-05-31T11:24:30.468Z,69.79
2023-05-31T11:25:30.476Z,72.25
2023-05-31T11:26:30.446Z,67.00
2023-05-31T11:27:30.520Z,70.39
2023-05-31T11:28:30.445Z,69.18
2023-05-31T11:29:30.443Z,73.59
2023-05-31T11:30:30.439Z,72.27
2023-05-31T11:31:30.436Z,72.28
2023-05-31T11:32:30.432Z,68.82
2023-05-31T11:33:30.404Z,71.86
2023-05-31T11:34:30.438Z,70.03
2023-05-31T11:35:30.401Z,71.25
2023-05-31T11:36:30.398Z,71.84
2023-05-31T11:37:30.370Z,70.35
2023-05-31T11:38:30.379Z,68.68
2023-05-31T11:39:30.384Z,71.81
2023-05-31T11:40:30.591Z,71.50
2023-05-31T11:41:30.384Z,71.10
2023-05-31T11:42:30.413Z,67.97
2023-05-31T11:43:30.400Z,71.59
2023-05-31T11:44:30.407Z,71.15
2023-05-31T11:45:30.326Z,70.38
2023-05-31T11:46:30.394Z,68.64
2023-05-31T11:47:30.354Z,73.81
2023-05-31T11:48:31.223Z,71.50
2023-05-31T11:49:30.370Z,72.10
2023-05-31T11:50:30.315Z,69.68
2023-05-31T11:51:30.308Z,67.81
2023-05-31T11:52:30.337Z,69.60
2023-05-31T11:53:30.275Z,68.33
2023-05-31T11:54:30.289Z,70.38
2023-05-31T11:55:30.304Z,72.10
2023-05-31T11:56:30.262Z,72.38
2023-05-31T11:57:30.283Z,76.04
2023-05-31T11:58:31.271Z,75.43
2023-05-31T11:59:30.257Z,71.94
2023-05-31T12:00:30.304Z,71.38
2023-05-31T12:01:30.265Z,73.03
2023-05-31T12:02:30.570Z,70.19
2023-05-31T12:03:30.306Z,69.58
2023-05-31T12:04:30.261Z,71.28
2023-05-31T12:05:30.218Z,71.57
2023-05-31T12:06:30.243Z,73.38
2023-05-31T12:07:30.243Z,73.97
2023-05-31T12:08:30.259Z,72.94
2023-05-31T12:09:30.232Z,73.09
2023-05-31T12:10:30.236Z,68.92
2023-05-31T12:11:30.204Z,68.86
2023-05-31T12:12:30.186Z,69.51
2023-05-31T12:13:30.161Z,73.11
2023-05-31T12:14:30.207Z,70.79
2023-05-31T12:15:30.160Z,70.96
2023-05-31T12:16:30.203Z,72.78
2023-05-31T12:17:30.182Z,70.49
2023-05-31T12:18:30.176Z,72.14
2023-05-31T12:19:30.137Z,69.84
2023-05-31T12:20:30.206Z,69.51
2023-05-31T12:21:30.146Z,70.74
2023-05-31T12:22:31.093Z,72.31
2023-05-31T12:23:30.150Z,70.51
2023-05-31T12:24:30.189Z,70.70
2023-05-31T12:25:30.143Z,74.44
2023-05-31T12:26:30.102Z,69.66
2023-05-31T12:27:44.469Z,73.83
2023-05-31T12:28:32.136Z,71.98
2023-05-31T12:29:31.099Z,70.74
2023-05-31T12:30:43.473Z,70.06
2023-05-31T12:31:32.178Z,72.85
2023-05-31T12:32:30.159Z,70.10
2023-05-31T12:33:30.032Z,69.46
2023-05-31T12:34:30.070Z,66.54
2023-05-31T12:35:30.053Z,71.23
2023-05-31T12:36:30.109Z,71.31
2023-05-31T12:37:30.061Z,68.94
2023-05-31T12:38:30.113Z,70.02
2023-05-31T12:39:30.055Z,70.03
2023-05-31T12:40:30.035Z,70.44
2023-05-31T12:41:29.976Z,69.63
2023-05-31T12:42:36.842Z,70.32
2023-05-31T12:43:31.828Z,70.43
2023-05-31T12:44:29.984Z,68.77
2023-05-31T12:45:30.028Z,70.10
2023-05-31T12:46:29.992Z,68.76
2023-05-31T12:47:30.056Z,71.04
2023-05-31T12:48:30.034Z,72.15
2023-05-31T12:49:29.954Z,73.74
2023-05-31T12:50:30.012Z,71.92
2023-05-31T12:51:29.960Z,68.72
2023-05-31T12:52:30.040Z,72.07
2023-05-31T12:53:30.022Z,70.86